createdAt,value
2023-11-27T00:03:32.212Z,2.90
2023-11-27T00:07:34.160Z,2.80
2023-11-27T00:11:38.748Z,2.70
2023-11-27T00:15:40.680Z,2.80
2023-11-27T00:19:42.563Z,2.80
2023-11-27T00:23:44.729Z,2.80
2023-11-27T00:27:46.680Z,2.70
2023-11-27T00:31:48.715Z,2.80
2023-11-27T00:35:50.674Z,2.70
2023-11-27T00:39:52.608Z,2.60
2023-11-27T00:43:54.788Z,2.60
2023-11-27T00:47:59.000Z,2.70
2023-11-27T00:52:01.011Z,2.60
2023-11-27T00:56:03.125Z,2.50
2023-11-27T01:00:09.744Z,2.50
2023-11-27T01:04:12.539Z,2.60
2023-11-27T01:08:14.680Z,2.60
2023-11-27T01:12:16.657Z,2.50
2023-11-27T01:16:18.672Z,2.50
2023-11-27T01:20:21.062Z,2.60
2023-11-27T01:24:24.626Z,2.70
2023-11-27T01:28:26.622Z,2.70
2023-11-27T01:32:28.758Z,2.60
2023-11-27T01:36:31.281Z,2.60
2023-11-27T01:40:33.211Z,2.50
2023-11-27T01:44:35.112Z,2.60
2023-11-27T01:48:36.958Z,2.70
2023-11-27T01:52:40.523Z,2.60
2023-11-27T01:56:49.438Z,2.50
2023-11-27T02:00:51.484Z,2.60
2023-11-27T02:04:53.461Z,2.50
2023-11-27T02:08:57.282Z,2.40
2023-11-27T02:12:59.272Z,2.30
2023-11-27T02:17:01.319Z,2.20
2023-11-27T02:21:08.209Z,2.20
2023-11-27T02:25:10.176Z,2.30
2023-11-27T02:29:13.132Z,2.60
2023-11-27T02:33:15.137Z,2.50
2023-11-27T02:37:17.048Z,2.50
2023-11-27T02:41:18.954Z,2.60
2023-11-27T02:45:20.981Z,2.90
2023-11-27T02:49:24.250Z,2.50
2023-11-27T02:53:26.332Z,2.50
2023-11-27T02:57:28.185Z,2.60
2023-11-27T03:01:30.590Z,2.60
2023-11-27T03:05:32.571Z,2.50
2023-11-27T03:09:34.686Z,2.50
2023-11-27T03:13:36.614Z,2.50
2023-11-27T03:17:42.085Z,2.50
2023-11-27T03:21:45.044Z,2.60
2023-11-27T03:25:47.058Z,2.50
2023-11-27T03:29:49.043Z,2.50
2023-11-27T03:33:50.929Z,2.50
2023-11-27T03:37:53.185Z,2.40
2023-11-27T03:41:55.071Z,2.30
2023-11-27T03:45:57.012Z,2.40
2023-11-27T03:49:59.178Z,2.40
2023-11-27T03:54:01.492Z,2.30
2023-11-27T03:58:04.021Z,2.30
2023-11-27T04:02:06.086Z,2.30
2023-11-27T04:06:09.263Z,2.30
2023-11-27T04:10:17.362Z,2.40
2023-11-27T04:14:19.544Z,2.30
2023-11-27T04:18:21.642Z,2.30
2023-11-27T04:22:25.577Z,2.30
2023-11-27T04:26:27.536Z,2.30
2023-11-27T04:30:29.431Z,2.30
2023-11-27T04:34:31.359Z,2.30
2023-11-27T04:38:34.652Z,2.40
2023-11-27T04:42:36.652Z,2.40
2023-11-27T04:46:38.786Z,2.40
2023-11-27T04:50:40.799Z,2.40
2023-11-27T04:54:43.084Z,2.30
2023-11-27T04:58:45.073Z,2.30
2023-11-27T05:02:47.204Z,2.30
2023-11-27T05:06:49.323Z,2.40
2023-11-27T05:10:51.220Z,2.30
2023-11-27T05:14:53.318Z,2.40
2023-11-27T05:18:55.425Z,2.20
2023-11-27T05:22:57.251Z,2.30
2023-11-27T05:27:02.623Z,2.30
2023-11-27T05:31:06.701Z,2.20
2023-11-27T05:35:09.712Z,2.20
2023-11-27T05:39:11.944Z,2.10
2023-11-27T05:43:13.874Z,2.10
2023-11-27T05:47:15.856Z,1.90
2023-11-27T05:51:19.148Z,1.90
2023-11-27T05:55:21.943Z,1.70
2023-11-27T05:59:23.872Z,1.80
2023-11-27T06:03:25.825Z,1.70
2023-11-27T06:07:27.829Z,1.70
2023-11-27T06:11:31.910Z,1.70
2023-11-27T06:15:33.842Z,1.70
2023-11-27T06:19:35.780Z,1.80
2023-11-27T06:23:37.784Z,1.70
2023-11-27T06:27:39.620Z,1.80
2023-11-27T06:31:41.981Z,1.80
2023-11-27T06:35:44.028Z,1.80
2023-11-27T06:39:49.135Z,1.90
2023-11-27T06:43:51.196Z,1.90
2023-11-27T06:47:53.145Z,1.80
2023-11-27T06:51:55.143Z,1.80
2023-11-27T06:55:57.104Z,1.70
2023-11-27T06:59:59.000Z,1.80
2023-11-27T07:04:01.813Z,1.90
2023-11-27T07:08:04.718Z,1.90
2023-11-27T07:12:06.993Z,2.00
2023-11-27T07:16:09.337Z,2.00
2023-11-27T07:20:18.598Z,2.30
2023-11-27T07:24:22.576Z,2.10
2023-11-27T07:28:24.993Z,2.10
2023-11-27T07:32:27.322Z,2.20
2023-11-27T07:36:29.606Z,2.30
2023-11-27T07:40:31.620Z,2.50
2023-11-27T07:44:33.968Z,2.40
2023-11-27T07:48:35.878Z,2.50
2023-11-27T07:52:39.046Z,2.50
2023-11-27T07:56:40.961Z,2.50
2023-11-27T08:00:43.332Z,2.50
2023-11-27T08:04:45.302Z,2.50
2023-11-27T08:08:48.475Z,2.50
2023-11-27T08:12:50.796Z,2.40
2023-11-27T08:16:52.796Z,2.50
2023-11-27T08:20:54.730Z,2.60
2023-11-27T08:24:58.301Z,2.70
2023-11-27T08:29:00.332Z,2.50
2023-11-27T08:33:02.434Z,2.60
2023-11-27T08:37:07.447Z,2.70
2023-11-27T08:41:09.613Z,2.50
2023-11-27T08:45:12.034Z,2.40
2023-11-27T08:49:15.166Z,2.60
2023-11-27T08:53:17.059Z,2.50
2023-11-27T08:57:18.981Z,1.90
2023-11-27T09:01:22.992Z,1.90
2023-11-27T09:05:31.804Z,2.20
2023-11-27T09:09:33.745Z,2.30
2023-11-27T09:13:35.857Z,2.30
2023-11-27T09:17:39.367Z,2.60
2023-11-27T09:21:41.358Z,2.80
2023-11-27T09:25:43.502Z,2.50
2023-11-27T09:29:45.457Z,2.10
2023-11-27T09:33:47.360Z,1.90
2023-11-27T09:37:49.450Z,2.00
2023-11-27T09:41:51.811Z,2.20
2023-11-27T09:45:55.521Z,2.30
2023-11-27T09:50:00.275Z,2.20
2023-11-27T09:54:04.786Z,2.40
2023-11-27T09:58:07.733Z,2.40
2023-11-27T10:02:12.925Z,2.70
2023-11-27T10:06:14.923Z,3.10
2023-11-27T10:10:17.917Z,3.10
2023-11-27T10:18:25.787Z,3.30
2023-11-27T10:22:33.817Z,3.50
2023-11-27T10:26:43.059Z,3.40
2023-11-27T10:30:46.278Z,3.80
2023-11-27T10:34:48.457Z,3.60
2023-11-27T10:39:05.691Z,3.70
2023-11-27T10:43:10.511Z,3.50
2023-11-27T10:47:12.637Z,3.50
2023-11-27T10:51:15.386Z,3.70
2023-11-27T10:55:19.364Z,3.50
2023-11-27T10:59:23.289Z,3.70
2023-11-27T11:03:28.975Z,3.80
2023-11-27T11:07:37.547Z,3.70
2023-11-27T11:11:41.738Z,3.50
2023-11-27T11:16:23.988Z,3.50
2023-11-27T11:20:50.853Z,3.20
2023-11-27T11:25:22.259Z,2.40
2023-11-27T11:29:35.597Z,1.90
2023-11-27T11:33:37.522Z,2.70
2023-11-27T11:37:50.267Z,2.90
2023-11-27T11:42:08.282Z,2.80
2023-11-27T11:46:20.088Z,2.80
2023-11-27T11:50:31.304Z,3.40
2023-11-27T11:54:42.586Z,3.80
2023-11-27T11:58:44.760Z,3.20
2023-11-27T12:02:53.272Z,2.60
2023-11-27T12:06:56.345Z,2.30
2023-11-27T12:11:00.314Z,2.20
2023-11-27T12:15:06.981Z,2.40
2023-11-27T12:19:09.153Z,2.70
2023-11-27T12:23:14.704Z,2.70
2023-11-27T12:27:16.614Z,2.90
2023-11-27T12:31:20.143Z,2.40
2023-11-27T12:35:22.551Z,2.70
2023-11-27T12:39:27.144Z,2.30
2023-11-27T12:43:35.564Z,2.00
2023-11-27T12:47:37.929Z,2.40
2023-11-27T12:51:40.066Z,2.40
2023-11-27T12:55:49.813Z,1.90
2023-11-27T12:59:51.965Z,2.10
2023-11-27T13:03:54.701Z,2.40
2023-11-27T13:08:00.928Z,2.50
2023-11-27T13:12:19.935Z,3.10
2023-11-27T13:16:22.130Z,3.20
2023-11-27T13:20:24.654Z,3.40
2023-11-27T13:24:31.317Z,3.20
2023-11-27T13:28:33.560Z,2.60
2023-11-27T13:32:36.688Z,2.10
2023-11-27T13:36:43.350Z,2.60
2023-11-27T13:40:49.857Z,2.50
2023-11-27T13:44:52.348Z,3.20
2023-11-27T13:48:54.212Z,3.30
2023-11-27T13:52:56.183Z,3.50
2023-11-27T13:57:01.476Z,3.10
2023-11-27T14:01:12.729Z,2.40
2023-11-27T14:05:21.885Z,2.80
2023-11-27T14:09:42.381Z,3.10
2023-11-27T14:13:48.498Z,3.20
2023-11-27T14:18:12.641Z,3.20
2023-11-27T14:22:33.277Z,3.10
2023-11-27T14:26:53.216Z,3.20
2023-11-27T14:30:55.143Z,2.90
2023-11-27T14:34:57.096Z,3.20
2023-11-27T14:39:00.074Z,3.30
2023-11-27T14:43:02.042Z,3.20
2023-11-27T14:47:06.482Z,3.20
2023-11-27T14:51:10.918Z,3.30
2023-11-27T14:55:13.803Z,3.70
2023-11-27T14:59:15.743Z,3.30
2023-11-27T15:03:20.913Z,3.20
2023-11-27T15:07:28.315Z,3.40
2023-11-27T15:11:30.411Z,3.40
2023-11-27T15:15:32.642Z,3.40
2023-11-27T15:19:34.555Z,3.40
2023-11-27T15:23:37.073Z,3.40
2023-11-27T15:27:40.876Z,3.30
2023-11-27T15:31:44.241Z,3.30
2023-11-27T15:35:46.461Z,3.20
2023-11-27T15:39:53.231Z,3.20
2023-11-27T15:43:55.173Z,3.30
2023-11-27T15:47:57.784Z,3.20
2023-11-27T15:52:01.335Z,3.30
2023-11-27T15:56:05.870Z,3.30
2023-11-27T16:00:08.966Z,3.10
2023-11-27T16:04:16.212Z,3.20
2023-11-27T16:08:18.197Z,3.20
2023-11-27T16:12:20.297Z,3.20
2023-11-27T16:16:22.378Z,3.30
2023-11-27T16:20:25.634Z,3.20
2023-11-27T16:24:27.635Z,3.10
2023-11-27T16:28:29.611Z,3.20
2023-11-27T16:32:32.007Z,3.30
2023-11-27T16:36:34.994Z,3.10
2023-11-27T16:40:38.833Z,2.90
2023-11-27T16:44:40.855Z,3.10
2023-11-27T16:48:42.781Z,3.10
2023-11-27T16:52:46.087Z,3.00
2023-11-27T16:56:49.140Z,2.90
2023-11-27T17:00:51.191Z,2.30
2023-11-27T17:04:53.305Z,2.40
2023-11-27T17:08:56.511Z,2.80
2023-11-27T17:12:59.405Z,2.90
2023-11-27T17:17:01.319Z,3.00
2023-11-27T17:21:05.065Z,3.20
2023-11-27T17:25:08.040Z,3.20
2023-11-27T17:29:10.210Z,3.10
2023-11-27T17:33:12.472Z,3.20
2023-11-27T17:37:16.490Z,3.20
2023-11-27T17:41:20.313Z,3.20
2023-11-27T17:45:23.504Z,3.00
2023-11-27T17:49:25.544Z,3.10
2023-11-27T17:53:27.762Z,3.10
2023-11-27T17:57:31.649Z,3.00
2023-11-27T18:01:33.839Z,2.80
2023-11-27T18:05:35.804Z,2.90
2023-11-27T18:09:37.695Z,3.00
2023-11-27T18:13:42.082Z,3.10
2023-11-27T18:17:45.205Z,2.90
2023-11-27T18:21:47.203Z,3.00
2023-11-27T18:25:49.448Z,2.90
2023-11-27T18:29:51.456Z,2.80
2023-11-27T18:33:53.513Z,2.70
2023-11-27T18:37:55.573Z,3.00
2023-11-27T18:42:02.164Z,2.70
2023-11-27T18:46:04.606Z,2.80
2023-11-27T18:50:07.246Z,2.80
2023-11-27T18:54:09.120Z,3.00
2023-11-27T18:58:14.903Z,2.70
2023-11-27T19:02:17.179Z,3.00
2023-11-27T19:06:19.623Z,2.60
2023-11-27T19:10:23.526Z,2.70
2023-11-27T19:14:25.516Z,2.90
2023-11-27T19:18:28.853Z,2.80
2023-11-27T19:22:30.892Z,2.80
2023-11-27T19:26:32.961Z,2.90
2023-11-27T19:30:34.869Z,2.90
2023-11-27T19:34:38.204Z,2.90
2023-11-27T19:38:40.235Z,2.90
2023-11-27T19:42:43.522Z,2.90
2023-11-27T19:46:45.507Z,2.90
2023-11-27T19:50:47.491Z,2.90
2023-11-27T19:54:49.697Z,2.60
2023-11-27T19:58:51.929Z,2.70
2023-11-27T20:02:56.020Z,2.70
2023-11-27T20:06:58.162Z,2.80
2023-11-27T20:11:01.353Z,2.70
2023-11-27T20:15:03.752Z,2.80
2023-11-27T20:19:06.707Z,2.90
2023-11-27T20:23:10.005Z,2.80
2023-11-27T20:27:12.919Z,2.90
2023-11-27T20:31:26.400Z,2.90
2023-11-27T20:35:35.720Z,2.80
2023-11-27T20:39:37.691Z,2.90
2023-11-27T20:43:39.578Z,2.80
2023-11-27T20:47:41.557Z,2.90
2023-11-27T20:51:43.507Z,2.90
2023-11-27T20:55:45.476Z,2.90
2023-11-27T20:59:48.231Z,2.80
2023-11-27T21:03:52.478Z,2.80
2023-11-27T21:07:56.213Z,2.70
2023-11-27T21:11:58.232Z,2.80
2023-11-27T21:16:00.314Z,2.30
2023-11-27T21:20:05.551Z,2.80
2023-11-27T21:24:07.760Z,2.60
2023-11-27T21:28:09.671Z,2.50
2023-11-27T21:32:12.613Z,2.50
2023-11-27T21:36:14.789Z,2.30
2023-11-27T21:40:17.760Z,2.50
2023-11-27T21:44:19.697Z,2.70
2023-11-27T21:48:23.022Z,2.40
2023-11-27T21:52:27.016Z,2.60
2023-11-27T21:56:30.306Z,2.60
2023-11-27T22:00:32.314Z,2.70
2023-11-27T22:04:34.395Z,2.70
2023-11-27T22:08:36.403Z,2.80
2023-11-27T22:12:38.425Z,3.00
2023-11-27T22:16:40.387Z,2.80
2023-11-27T22:20:42.443Z,2.70
2023-11-27T22:24:44.382Z,2.70
2023-11-27T22:28:48.999Z,2.70
2023-11-27T22:32:52.066Z,2.80
2023-11-27T22:36:53.962Z,2.80
2023-11-27T22:40:57.814Z,2.80
2023-11-27T22:44:59.821Z,2.60
2023-11-27T22:49:01.809Z,2.60
2023-11-27T22:53:03.724Z,2.30
2023-11-27T22:57:05.640Z,2.30
2023-11-27T23:01:08.453Z,2.50
2023-11-27T23:05:10.375Z,2.50
2023-11-27T23:09:13.406Z,2.30
2023-11-27T23:13:15.596Z,2.40
2023-11-27T23:17:17.581Z,2.40
2023-11-27T23:21:19.786Z,2.50
2023-11-27T23:25:21.765Z,2.50
2023-11-27T23:29:23.917Z,2.40
2023-11-27T23:33:25.861Z,2.30
2023-11-27T23:37:27.807Z,2.40
2023-11-27T23:41:29.774Z,2.50
2023-11-27T23:45:31.763Z,2.60
2023-11-27T23:49:36.962Z,2.30
2023-11-27T23:53:38.900Z,1.70
2023-11-27T23:57:41.688Z,2.00
